createdAt,value
2022-08-11T00:00:06.358Z,7.60
2022-08-11T00:02:37.024Z,7.22
2022-08-11T00:05:10.471Z,8.43
2022-08-11T00:07:52.895Z,8.25
2022-08-11T00:10:29.782Z,7.63
2022-08-11T00:13:04.292Z,7.72
2022-08-11T00:15:45.645Z,9.15
2022-08-11T00:18:17.270Z,8.77
2022-08-11T00:20:45.493Z,8.70
2022-08-11T00:25:54.580Z,9.75
2022-08-11T00:28:27.077Z,11.65
2022-08-11T00:30:57.529Z,9.70
2022-08-11T00:33:41.814Z,9.57
2022-08-11T00:36:16.391Z,8.73
2022-08-11T00:38:46.015Z,9.23
2022-08-11T00:41:32.807Z,9.65
2022-08-11T00:44:20.805Z,10.23
2022-08-11T00:46:58.629Z,12.35
2022-08-11T00:49:40.145Z,11.63
2022-08-11T00:52:19.485Z,9.80
2022-08-11T00:55:18.424Z,10.95
2022-08-11T00:58:23.468Z,12.02
2022-08-11T01:01:09.771Z,12.15
2022-08-11T01:03:53.294Z,11.98
2022-08-11T01:06:59.641Z,11.80
2022-08-11T01:09:52.286Z,11.45
2022-08-11T01:12:45.173Z,11.90
2022-08-11T01:15:24.421Z,14.40
2022-08-11T01:18:29.714Z,12.98
2022-08-11T01:21:19.905Z,11.57
2022-08-11T01:24:02.630Z,12.40
2022-08-11T01:27:19.056Z,11.43
2022-08-11T01:30:31.867Z,11.73
2022-08-11T01:33:46.273Z,10.93
2022-08-11T01:36:38.204Z,12.57
2022-08-11T01:39:43.451Z,11.77
2022-08-11T01:42:57.480Z,13.95
2022-08-11T01:45:55.941Z,14.57
2022-08-11T01:48:49.862Z,13.65
2022-08-11T01:51:30.216Z,12.63
2022-08-11T01:54:04.469Z,13.65
2022-08-11T01:57:06.080Z,13.52
2022-08-11T01:59:48.753Z,12.27
2022-08-11T02:02:48.581Z,14.38
2022-08-11T02:05:29.211Z,14.80
2022-08-11T02:08:21.498Z,14.93
2022-08-11T02:11:31.031Z,17.15
2022-08-11T02:14:36.974Z,15.68
2022-08-11T02:17:12.911Z,16.55
2022-08-11T02:20:11.199Z,15.40
2022-08-11T02:24:04.404Z,14.98
2022-08-11T02:26:26.207Z,17.73
2022-08-11T02:29:33.425Z,16.85
2022-08-11T02:32:40.082Z,16.48
2022-08-11T02:35:22.869Z,15.57
2022-08-11T02:38:25.584Z,13.15
2022-08-11T02:41:49.807Z,11.45
2022-08-11T02:44:57.541Z,11.32
2022-08-11T02:50:26.677Z,12.48
2022-08-11T02:53:03.602Z,11.85
2022-08-11T02:55:56.515Z,10.68
2022-08-11T02:59:13.941Z,10.90
2022-08-11T03:01:50.370Z,11.25
2022-08-11T03:04:36.672Z,10.68
2022-08-11T03:07:28.702Z,11.45
2022-08-11T03:10:10.014Z,11.35
2022-08-11T03:13:08.089Z,11.68
2022-08-11T03:16:14.831Z,11.68
2022-08-11T03:19:11.588Z,11.85
2022-08-11T03:22:02.544Z,11.98
2022-08-11T03:24:42.460Z,11.32
2022-08-11T03:27:19.822Z,11.70
2022-08-11T03:30:11.928Z,12.87
2022-08-11T03:33:21.635Z,11.98
2022-08-11T03:36:23.020Z,11.77
2022-08-11T03:39:08.583Z,10.93
2022-08-11T03:42:01.514Z,11.73
2022-08-11T03:44:36.451Z,10.05
2022-08-11T03:47:18.201Z,9.68
2022-08-11T03:50:02.192Z,9.30
2022-08-11T03:52:51.307Z,9.70
2022-08-11T03:55:28.168Z,10.00
2022-08-11T03:58:22.338Z,10.07
2022-08-11T04:01:27.201Z,10.63
2022-08-11T04:04:13.125Z,11.18
2022-08-11T04:07:17.970Z,10.55
2022-08-11T04:10:00.677Z,9.45
2022-08-11T04:12:53.198Z,10.15
2022-08-11T04:16:10.887Z,8.93
2022-08-11T04:18:50.509Z,9.43
2022-08-11T04:21:36.784Z,9.50
2022-08-11T04:24:37.895Z,9.23
2022-08-11T04:27:41.111Z,8.73
2022-08-11T04:30:09.113Z,8.90
2022-08-11T04:33:34.973Z,9.23
2022-08-11T04:36:52.044Z,9.05
2022-08-11T04:39:34.697Z,8.95
2022-08-11T04:42:42.085Z,8.55
2022-08-11T04:45:37.834Z,8.90
2022-08-11T04:49:02.872Z,9.25
2022-08-11T04:52:16.723Z,8.90
2022-08-11T04:55:54.858Z,7.90
2022-08-11T04:59:20.079Z,7.75
2022-08-11T05:02:16.650Z,8.38
2022-08-11T05:05:31.480Z,12.32
2022-08-11T05:08:37.032Z,13.82
2022-08-11T05:11:41.947Z,13.77
2022-08-11T05:14:30.796Z,16.48
2022-08-11T05:17:27.826Z,18.63
2022-08-11T05:20:14.876Z,17.60
2022-08-11T05:23:09.383Z,16.87
2022-08-11T05:26:44.420Z,16.45
2022-08-11T05:29:24.195Z,21.20
2022-08-11T05:32:17.446Z,26.90
2022-08-11T05:34:54.481Z,30.13
2022-08-11T05:37:33.987Z,29.00
2022-08-11T05:40:26.665Z,28.20
2022-08-11T05:43:25.565Z,29.70
2022-08-11T05:46:20.589Z,31.30
2022-08-11T05:49:08.044Z,30.73
2022-08-11T05:52:05.747Z,30.80
2022-08-11T05:55:06.359Z,29.17
2022-08-11T05:57:49.795Z,30.70
2022-08-11T06:00:20.061Z,29.77
2022-08-11T06:02:52.175Z,27.83
2022-08-11T06:05:34.889Z,27.77
2022-08-11T06:08:07.728Z,26.58
2022-08-11T06:10:45.321Z,26.40
2022-08-11T06:13:17.459Z,28.42
2022-08-11T06:15:49.895Z,26.00
2022-08-11T06:18:21.190Z,29.00
2022-08-11T06:21:00.656Z,27.15
2022-08-11T06:23:36.463Z,28.58
2022-08-11T06:26:15.670Z,28.67
2022-08-11T06:28:47.051Z,27.30
2022-08-11T06:31:18.699Z,28.75
2022-08-11T06:34:27.332Z,28.90
2022-08-11T06:37:18.744Z,29.45
2022-08-11T06:39:56.106Z,30.40
2022-08-11T06:42:46.134Z,32.38
2022-08-11T06:45:35.272Z,29.75
2022-08-11T06:48:10.208Z,30.23
2022-08-11T06:50:56.694Z,29.98
2022-08-11T06:53:34.761Z,29.83
2022-08-11T06:59:10.490Z,30.20
2022-08-11T07:02:08.906Z,30.02
2022-08-11T07:04:49.627Z,35.08
2022-08-11T07:08:34.419Z,31.40
2022-08-11T07:11:40.666Z,32.72
2022-08-11T07:14:30.617Z,31.40
2022-08-11T07:17:01.333Z,31.30
2022-08-11T07:19:49.169Z,30.27
2022-08-11T07:25:31.759Z,28.65
2022-08-11T07:28:33.247Z,27.05
2022-08-11T07:31:14.593Z,24.02
2022-08-11T07:34:05.231Z,25.55
2022-08-11T07:36:57.603Z,24.00
2022-08-11T07:39:44.163Z,26.98
2022-08-11T07:42:33.652Z,25.48
2022-08-11T07:45:26.964Z,25.45
2022-08-11T07:48:18.287Z,25.80
2022-08-11T07:51:08.434Z,25.95
2022-08-11T07:53:41.918Z,26.13
2022-08-11T07:56:38.566Z,27.35
2022-08-11T07:59:59.857Z,25.95
2022-08-11T08:02:41.629Z,27.05
2022-08-11T08:05:33.068Z,28.52
2022-08-11T08:08:19.484Z,29.67
2022-08-11T08:11:06.108Z,32.25
2022-08-11T08:13:54.046Z,32.10
2022-08-11T08:16:45.739Z,29.90
2022-08-11T08:19:17.216Z,32.05
2022-08-11T08:22:38.860Z,31.48
2022-08-11T08:25:03.889Z,31.02
2022-08-11T08:27:36.247Z,30.33
2022-08-11T08:30:26.081Z,30.23
2022-08-11T08:32:59.134Z,28.83
2022-08-11T08:35:32.934Z,25.77
2022-08-11T08:38:01.252Z,26.67
2022-08-11T08:40:29.500Z,25.08
2022-08-11T08:43:02.215Z,22.65
2022-08-11T08:45:37.853Z,23.88
2022-08-11T08:48:16.731Z,23.63
2022-08-11T08:51:08.958Z,22.30
2022-08-11T08:53:53.310Z,20.77
2022-08-11T08:56:38.519Z,21.95
2022-08-11T08:59:06.955Z,21.33
2022-08-11T09:01:46.092Z,18.88
2022-08-11T09:04:22.411Z,20.95
2022-08-11T09:06:52.345Z,19.17
2022-08-11T09:09:25.287Z,19.48
2022-08-11T09:11:56.437Z,18.90
2022-08-11T09:14:51.700Z,17.05
2022-08-11T09:17:23.738Z,15.45
2022-08-11T09:20:16.490Z,14.75
2022-08-11T09:26:18.736Z,12.55
2022-08-11T09:28:47.446Z,12.25
2022-08-11T09:31:16.124Z,12.00
2022-08-11T09:33:45.783Z,11.57
2022-08-11T09:36:32.558Z,11.55
2022-08-11T09:39:21.782Z,9.48
2022-08-11T09:42:01.300Z,9.18
2022-08-11T09:44:52.796Z,10.18
2022-08-11T09:47:26.353Z,9.57
2022-08-11T09:50:00.461Z,9.45
2022-08-11T09:52:32.532Z,7.35
2022-08-11T09:55:02.164Z,7.70
2022-08-11T09:57:48.207Z,7.22
2022-08-11T10:00:16.473Z,6.55
2022-08-11T10:02:49.727Z,5.88
2022-08-11T10:05:55.864Z,4.65
2022-08-11T10:08:28.584Z,5.25
2022-08-11T10:10:57.695Z,4.72
2022-08-11T10:14:33.429Z,5.60
2022-08-11T10:16:48.034Z,4.65
2022-08-11T10:19:19.355Z,4.85
2022-08-11T10:22:13.964Z,4.20
2022-08-11T10:25:05.531Z,3.92
2022-08-11T10:28:17.160Z,3.20
2022-08-11T10:30:42.430Z,4.18
2022-08-11T10:33:37.739Z,3.60
2022-08-11T10:36:16.878Z,3.67
2022-08-11T10:38:52.364Z,3.85
2022-08-11T10:42:06.709Z,3.50
2022-08-11T10:44:27.492Z,3.70
2022-08-11T10:49:42.023Z,3.25
2022-08-11T10:52:29.200Z,2.75
2022-08-11T10:55:15.211Z,3.13
2022-08-11T10:58:04.536Z,2.50
2022-08-11T11:00:35.003Z,2.70
2022-08-11T11:03:21.931Z,2.60
2022-08-11T11:06:12.646Z,2.45
2022-08-11T11:08:53.430Z,2.10
2022-08-11T11:15:37.086Z,2.35
2022-08-11T11:18:09.581Z,2.05
2022-08-11T11:20:54.010Z,2.20
2022-08-11T11:23:47.594Z,2.28
2022-08-11T11:26:38.408Z,2.13
2022-08-11T11:29:44.864Z,1.98
2022-08-11T11:32:33.685Z,2.17
2022-08-11T11:35:15.973Z,2.05
2022-08-11T11:38:03.610Z,1.83
2022-08-11T11:40:33.923Z,2.08
2022-08-11T11:43:02.317Z,2.03
2022-08-11T11:45:30.484Z,1.92
2022-08-11T11:48:00.004Z,1.52
2022-08-11T11:50:38.642Z,2.00
2022-08-11T11:53:09.554Z,1.55
2022-08-11T11:55:37.819Z,1.70
2022-08-11T11:58:24.870Z,1.48
2022-08-11T12:01:12.694Z,1.58
2022-08-11T12:03:41.637Z,1.70
2022-08-11T12:06:14.080Z,2.10
2022-08-11T12:08:42.907Z,1.63
2022-08-11T12:11:35.834Z,1.70
2022-08-11T12:14:10.804Z,1.70
2022-08-11T12:16:41.550Z,1.50
2022-08-11T12:19:12.999Z,1.38
2022-08-11T12:22:01.122Z,1.60
2022-08-11T12:24:54.040Z,1.73
2022-08-11T12:27:24.276Z,1.60
2022-08-11T12:29:59.266Z,1.55
2022-08-11T12:32:32.988Z,1.55
2022-08-11T12:35:01.590Z,1.65
2022-08-11T12:37:40.159Z,1.58
2022-08-11T12:40:50.001Z,1.35
2022-08-11T12:43:39.766Z,1.38
2022-08-11T12:46:16.607Z,1.38
2022-08-11T12:49:10.381Z,1.60
2022-08-11T12:52:01.650Z,1.55
2022-08-11T12:54:58.760Z,1.50
2022-08-11T12:57:50.265Z,1.13
2022-08-11T13:00:37.974Z,1.50
2022-08-11T13:03:27.023Z,1.40
2022-08-11T13:06:03.832Z,1.33
2022-08-11T13:08:35.508Z,1.60
2022-08-11T13:11:23.089Z,1.45
2022-08-11T13:16:31.537Z,1.42
2022-08-11T13:19:02.951Z,1.50
2022-08-11T13:21:31.300Z,1.60
2022-08-11T13:24:03.422Z,1.27
2022-08-11T13:26:43.585Z,1.15
2022-08-11T13:29:25.125Z,1.30
2022-08-11T13:31:56.013Z,1.50
2022-08-11T13:34:27.054Z,1.60
2022-08-11T13:37:00.978Z,1.40
2022-08-11T13:39:31.738Z,1.48
2022-08-11T13:42:02.511Z,1.50
2022-08-11T13:44:33.316Z,1.30
2022-08-11T13:47:04.300Z,1.40
2022-08-11T13:49:37.050Z,1.50
2022-08-11T13:52:13.549Z,1.40
2022-08-11T13:54:42.574Z,1.40
2022-08-11T13:58:05.996Z,1.30
2022-08-11T14:00:13.317Z,1.50
2022-08-11T14:02:55.506Z,1.50
2022-08-11T14:05:39.925Z,1.25
2022-08-11T14:08:37.568Z,1.10
2022-08-11T14:12:22.844Z,1.30
2022-08-11T14:14:20.340Z,1.42
2022-08-11T14:16:51.146Z,1.48
2022-08-11T14:19:23.894Z,1.30
2022-08-11T14:22:08.763Z,1.23
2022-08-11T14:24:42.850Z,1.42
2022-08-11T14:28:29.493Z,1.35
2022-08-11T14:30:01.431Z,1.42
2022-08-11T14:32:29.194Z,1.20
2022-08-11T14:34:58.738Z,1.40
2022-08-11T14:37:29.094Z,1.10
2022-08-11T14:40:21.787Z,1.60
2022-08-11T14:43:08.349Z,1.38
2022-08-11T14:45:58.807Z,1.45
2022-08-11T14:48:27.493Z,1.23
2022-08-11T14:50:55.987Z,1.30
2022-08-11T14:53:24.211Z,1.40
2022-08-11T14:56:12.501Z,1.40
2022-08-11T14:58:42.944Z,1.20
2022-08-11T15:01:31.054Z,1.58
2022-08-11T15:04:06.163Z,1.30
2022-08-11T15:06:48.112Z,1.40
2022-08-11T15:09:16.721Z,1.50
2022-08-11T15:12:03.241Z,1.35
2022-08-11T15:14:49.788Z,1.50
2022-08-11T15:17:29.410Z,1.27
2022-08-11T15:20:31.161Z,1.20
2022-08-11T15:23:18.035Z,1.48
2022-08-11T15:25:50.994Z,1.35
2022-08-11T15:28:39.545Z,1.60
2022-08-11T15:31:25.888Z,1.40
2022-08-11T15:34:24.157Z,1.73
2022-08-11T15:37:22.360Z,1.70
2022-08-11T15:40:31.242Z,1.58
2022-08-11T15:43:29.428Z,1.50
2022-08-11T15:46:02.416Z,1.60
2022-08-11T15:48:40.659Z,1.65
2022-08-11T15:51:35.962Z,1.50
2022-08-11T15:54:09.434Z,1.60
2022-08-11T15:56:44.111Z,1.63
2022-08-11T15:59:42.133Z,1.63
2022-08-11T16:02:34.232Z,1.60
2022-08-11T16:05:06.080Z,1.42
2022-08-11T16:07:36.407Z,1.60
2022-08-11T16:10:21.507Z,1.70
2022-08-11T16:13:05.987Z,1.40
2022-08-11T16:15:56.885Z,1.70
2022-08-11T16:18:40.605Z,1.70
2022-08-11T16:21:35.067Z,1.80
2022-08-11T16:24:07.754Z,1.60
2022-08-11T16:27:11.606Z,1.80
2022-08-11T16:29:31.928Z,1.63
2022-08-11T16:32:18.860Z,1.73
2022-08-11T16:35:17.097Z,1.58
2022-08-11T16:38:06.246Z,1.83
2022-08-11T16:40:34.707Z,1.80
2022-08-11T16:43:24.455Z,1.65
2022-08-11T16:46:13.018Z,2.10
2022-08-11T16:48:44.010Z,1.70
2022-08-11T16:51:15.925Z,1.48
2022-08-11T16:53:59.409Z,1.50
2022-08-11T16:56:50.598Z,1.60
2022-08-11T16:59:29.789Z,1.55
2022-08-11T17:02:06.891Z,1.73
2022-08-11T17:05:05.483Z,1.80
2022-08-11T17:08:01.176Z,1.63
2022-08-11T17:10:56.688Z,1.60
2022-08-11T17:13:33.967Z,1.70
2022-08-11T17:16:07.416Z,1.73
2022-08-11T17:18:56.320Z,1.70
2022-08-11T17:21:29.789Z,1.80
2022-08-11T17:24:14.374Z,1.67
2022-08-11T17:26:59.812Z,1.63
2022-08-11T17:29:53.675Z,1.50
2022-08-11T17:32:56.720Z,1.70
2022-08-11T17:35:38.808Z,1.60
2022-08-11T17:38:21.647Z,1.60
2022-08-11T17:41:18.441Z,1.50
2022-08-11T17:44:12.515Z,1.65
2022-08-11T17:47:03.816Z,1.67
2022-08-11T17:49:39.357Z,1.60
2022-08-11T17:52:29.739Z,1.70
2022-08-11T17:55:52.469Z,1.60
2022-08-11T17:58:26.717Z,1.60
2022-08-11T18:00:56.232Z,1.60
2022-08-11T18:03:57.802Z,1.55
2022-08-11T18:06:33.991Z,1.55
2022-08-11T18:09:29.810Z,1.48
2022-08-11T18:12:17.789Z,1.98
2022-08-11T18:15:06.964Z,1.83
2022-08-11T18:17:55.421Z,1.63
2022-08-11T18:20:42.899Z,1.60
2022-08-11T18:26:37.761Z,1.80
2022-08-11T18:29:26.608Z,1.75
2022-08-11T18:32:21.282Z,2.13
2022-08-11T18:35:13.010Z,1.90
2022-08-11T18:38:05.960Z,1.67
2022-08-11T18:40:54.767Z,1.80
2022-08-11T18:43:44.369Z,2.03
2022-08-11T18:46:32.022Z,1.90
2022-08-11T18:49:25.009Z,2.10
2022-08-11T18:52:14.432Z,2.28
2022-08-11T18:55:03.073Z,1.85
2022-08-11T18:57:54.338Z,1.95
2022-08-11T19:00:45.138Z,2.10
2022-08-11T19:03:48.572Z,2.13
2022-08-11T19:06:40.899Z,2.20
2022-08-11T19:09:32.288Z,2.08
2022-08-11T19:12:20.169Z,2.13
2022-08-11T19:15:09.424Z,2.08
2022-08-11T19:17:58.851Z,2.28
2022-08-11T19:20:47.670Z,2.30
2022-08-11T19:23:37.294Z,2.53
2022-08-11T19:26:26.369Z,2.30
2022-08-11T19:30:07.473Z,2.10
2022-08-11T19:32:21.429Z,2.38
2022-08-11T19:35:09.439Z,2.40
2022-08-11T19:37:57.906Z,2.08
2022-08-11T19:40:44.949Z,2.08
2022-08-11T19:43:32.617Z,2.30
2022-08-11T19:46:19.925Z,2.20
2022-08-11T19:49:10.917Z,2.72
2022-08-11T19:51:58.475Z,2.63
2022-08-11T19:57:38.672Z,2.58
2022-08-11T20:00:41.227Z,2.60
2022-08-11T20:03:32.470Z,2.38
2022-08-11T20:06:23.543Z,2.50
2022-08-11T20:09:14.818Z,2.90
2022-08-11T20:12:05.001Z,2.97
2022-08-11T20:14:54.395Z,2.38
2022-08-11T20:17:48.235Z,2.80
2022-08-11T20:20:40.675Z,2.47
2022-08-11T20:23:30.633Z,2.55
2022-08-11T20:26:30.705Z,2.85
2022-08-11T20:29:18.732Z,2.67
2022-08-11T20:32:06.534Z,2.50
2022-08-11T20:34:57.992Z,2.60
2022-08-11T20:37:50.254Z,2.78
2022-08-11T20:40:43.191Z,2.75
2022-08-11T20:44:07.049Z,2.90
2022-08-11T20:46:47.547Z,3.03
2022-08-11T20:49:45.259Z,2.95
2022-08-11T20:52:41.382Z,2.95
2022-08-11T20:55:46.229Z,2.95
2022-08-11T20:59:11.126Z,2.85
2022-08-11T21:01:43.903Z,2.80
2022-08-11T21:04:30.343Z,2.80
2022-08-11T21:07:28.122Z,2.90
2022-08-11T21:10:29.387Z,2.97
2022-08-11T21:13:17.991Z,3.20
2022-08-11T21:19:54.620Z,2.80
2022-08-11T21:22:28.338Z,3.10
2022-08-11T21:25:17.610Z,3.50
2022-08-11T21:28:05.579Z,3.30
2022-08-11T21:30:55.776Z,3.25
2022-08-11T21:33:49.427Z,3.50
2022-08-11T21:36:37.441Z,3.80
2022-08-11T21:42:15.237Z,3.78
2022-08-11T21:45:02.600Z,3.42
2022-08-11T21:48:01.011Z,4.32
2022-08-11T21:50:48.131Z,4.03
2022-08-11T21:53:35.148Z,3.70
2022-08-11T21:56:27.372Z,3.80
2022-08-11T21:59:16.290Z,4.05
2022-08-11T22:02:05.298Z,4.78
2022-08-11T22:04:55.739Z,4.78
2022-08-11T22:07:43.234Z,5.40
2022-08-11T22:10:41.540Z,6.03
2022-08-11T22:13:31.231Z,5.15
2022-08-11T22:16:18.608Z,4.97
2022-08-11T22:19:09.750Z,5.93
2022-08-11T22:22:04.249Z,5.97
2022-08-11T22:24:54.824Z,5.40
2022-08-11T22:27:40.817Z,5.90
2022-08-11T22:30:29.445Z,5.38
2022-08-11T22:33:18.655Z,6.28
2022-08-11T22:36:13.915Z,5.88
2022-08-11T22:39:01.080Z,6.28
2022-08-11T22:41:47.276Z,6.13
2022-08-11T22:44:33.443Z,5.60
2022-08-11T22:47:21.540Z,6.20
2022-08-11T22:50:16.334Z,6.07
2022-08-11T22:53:03.638Z,5.95
2022-08-11T22:55:50.967Z,6.05
2022-08-11T22:58:39.562Z,5.82
2022-08-11T23:01:26.570Z,5.93
2022-08-11T23:04:15.045Z,5.45
2022-08-11T23:07:02.007Z,6.65
2022-08-11T23:09:48.508Z,6.55
2022-08-11T23:12:36.805Z,6.05
2022-08-11T23:15:23.309Z,6.72
2022-08-11T23:18:10.102Z,6.30
2022-08-11T23:20:58.743Z,6.55
2022-08-11T23:23:47.489Z,7.03
2022-08-11T23:26:36.809Z,6.28
2022-08-11T23:29:24.779Z,6.75
2022-08-11T23:32:12.023Z,7.55
2022-08-11T23:35:38.090Z,7.53
2022-08-11T23:38:08.999Z,7.57
2022-08-11T23:40:57.545Z,7.38
2022-08-11T23:43:43.745Z,8.13
2022-08-11T23:46:29.765Z,8.05
2022-08-11T23:49:20.207Z,8.98
2022-08-11T23:52:07.695Z,6.82
2022-08-11T23:54:54.454Z,6.50
2022-08-11T23:57:42.226Z,6.57
